createdAt,value
2022-12-03T00:01:58.773Z,98304.91
2022-12-03T00:04:25.479Z,98297.97
2022-12-03T00:06:52.082Z,98311.84
2022-12-03T00:09:18.699Z,98311.84
2022-12-03T00:11:45.342Z,98316.19
2022-12-03T00:14:12.013Z,98318.75
2022-12-03T00:16:38.638Z,98320.50
2022-12-03T00:19:07.717Z,98317.91
2022-12-03T00:21:34.761Z,98326.53
2022-12-03T00:24:01.392Z,98323.97
2022-12-03T00:26:28.004Z,98323.97
2022-12-03T00:28:54.982Z,98323.97
2022-12-03T00:31:23.528Z,98328.28
2022-12-03T00:33:53.465Z,98328.28
2022-12-03T00:36:20.381Z,98327.38
2022-12-03T00:38:47.246Z,98328.25
2022-12-03T00:41:13.814Z,98334.28
2022-12-03T00:43:40.454Z,98336.03
2022-12-03T00:46:07.191Z,98331.69
2022-12-03T00:48:33.856Z,98336.91
2022-12-03T00:51:00.427Z,98340.38
2022-12-03T00:53:27.410Z,98343.88
2022-12-03T00:55:54.139Z,98341.28
2022-12-03T00:58:20.804Z,98346.50
2022-12-03T01:00:47.591Z,98353.41
2022-12-03T01:03:14.295Z,98349.03
2022-12-03T01:05:40.898Z,98358.56
2022-12-03T01:08:07.634Z,98355.97
2022-12-03T01:10:34.207Z,98358.63
2022-12-03T01:13:00.910Z,98356.84
2022-12-03T01:15:27.595Z,98366.41
2022-12-03T01:17:54.435Z,98356.00
2022-12-03T01:20:21.332Z,98358.59
2022-12-03T01:22:47.997Z,98362.94
2022-12-03T01:25:14.772Z,98364.66
2022-12-03T01:27:41.394Z,98362.06
2022-12-03T01:30:08.765Z,98358.59
2022-12-03T01:32:35.400Z,98361.22
2022-12-03T01:35:02.103Z,98360.34
2022-12-03T01:37:28.839Z,98352.50
2022-12-03T01:39:55.550Z,98358.63
2022-12-03T01:42:25.888Z,98353.38
2022-12-03T01:44:54.914Z,98353.41
2022-12-03T01:47:28.059Z,98354.25
2022-12-03T01:50:20.815Z,98352.53
2022-12-03T01:52:47.618Z,98361.22
2022-12-03T01:55:18.560Z,98351.63
2022-12-03T01:57:47.988Z,98359.47
2022-12-03T02:00:17.647Z,98347.31
2022-12-03T02:02:45.372Z,98346.41
2022-12-03T02:05:19.319Z,98349.00
2022-12-03T02:07:46.599Z,98349.88
2022-12-03T02:10:16.004Z,98348.91
2022-12-03T02:12:51.970Z,98358.47
2022-12-03T02:15:18.766Z,98358.47
2022-12-03T02:17:45.652Z,98370.59
2022-12-03T02:20:13.644Z,98364.56
2022-12-03T02:22:55.422Z,98366.31
2022-12-03T02:25:27.203Z,98372.41
2022-12-03T02:27:55.536Z,98364.56
2022-12-03T02:30:25.319Z,98372.38
2022-12-03T02:32:53.480Z,98365.41
2022-12-03T02:35:23.094Z,98365.44
2022-12-03T02:37:54.062Z,98367.16
2022-12-03T02:40:23.941Z,98372.41
2022-12-03T02:42:53.169Z,98373.25
2022-12-03T02:45:25.631Z,98371.47
2022-12-03T02:48:01.024Z,98366.28
2022-12-03T02:50:34.443Z,98371.50
2022-12-03T02:53:04.947Z,98365.47
2022-12-03T02:55:38.544Z,98372.41
2022-12-03T02:58:05.728Z,98371.53
2022-12-03T03:00:33.380Z,98378.47
2022-12-03T03:03:01.331Z,98371.47
2022-12-03T03:05:28.400Z,98370.66
2022-12-03T03:07:58.357Z,98368.00
2022-12-03T03:10:26.436Z,98371.47
2022-12-03T03:12:55.039Z,98369.72
2022-12-03T03:15:22.750Z,98372.28
2022-12-03T03:17:49.584Z,98368.91
2022-12-03T03:20:16.304Z,98371.41
2022-12-03T03:22:43.415Z,98374.81
2022-12-03T03:25:15.757Z,98372.28
2022-12-03T03:27:42.972Z,98381.84
2022-12-03T03:30:10.903Z,98382.69
2022-12-03T03:32:39.553Z,98379.25
2022-12-03T03:35:07.282Z,98377.53
2022-12-03T03:37:34.111Z,98379.31
2022-12-03T03:40:00.805Z,98388.81
2022-12-03T03:42:27.637Z,98387.94
2022-12-03T03:44:54.493Z,98389.66
2022-12-03T03:47:21.236Z,98387.94
2022-12-03T03:49:50.682Z,98385.31
2022-12-03T03:52:19.788Z,98393.16
2022-12-03T03:54:47.303Z,98387.94
2022-12-03T03:57:14.466Z,98383.56
2022-12-03T03:59:41.397Z,98387.03
2022-12-03T04:02:17.776Z,98389.59
2022-12-03T04:04:44.686Z,98389.59
2022-12-03T04:07:11.295Z,98387.00
2022-12-03T04:09:37.895Z,98386.97
2022-12-03T04:12:23.088Z,98397.34
2022-12-03T04:14:49.695Z,98392.16
2022-12-03T04:17:16.286Z,98402.50
2022-12-03T04:19:43.136Z,98389.47
2022-12-03T04:22:28.254Z,98393.81
2022-12-03T04:25:17.675Z,98394.72
2022-12-03T04:28:03.806Z,98403.31
2022-12-03T04:30:30.725Z,98401.59
2022-12-03T04:33:16.082Z,98404.22
2022-12-03T04:35:42.742Z,98407.72
2022-12-03T04:38:14.598Z,98399.91
2022-12-03T04:41:00.240Z,98401.66
2022-12-03T04:43:32.612Z,98406.84
2022-12-03T04:45:59.358Z,98409.44
2022-12-03T04:48:26.425Z,98407.72
2022-12-03T04:50:53.238Z,98405.13
2022-12-03T04:53:19.842Z,98412.13
2022-12-03T04:55:46.506Z,98403.44
2022-12-03T04:58:13.133Z,98412.91
2022-12-03T05:00:39.747Z,98410.28
2022-12-03T05:03:06.399Z,98406.78
2022-12-03T05:05:33.067Z,98406.81
2022-12-03T05:07:59.857Z,98408.53
2022-12-03T05:10:27.857Z,98408.56
2022-12-03T05:12:54.547Z,98417.22
2022-12-03T05:15:21.227Z,98412.84
2022-12-03T05:17:47.795Z,98410.28
2022-12-03T05:20:33.495Z,98406.81
2022-12-03T05:23:00.160Z,98415.47
2022-12-03T05:25:26.767Z,98418.91
2022-12-03T05:27:53.987Z,98423.22
2022-12-03T05:30:20.661Z,98418.84
2022-12-03T05:32:47.335Z,98414.53
2022-12-03T05:35:14.028Z,98414.47
2022-12-03T05:37:40.615Z,98416.22
2022-12-03T05:40:07.967Z,98417.13
2022-12-03T05:42:53.510Z,98416.28
2022-12-03T05:45:22.158Z,98416.31
2022-12-03T05:47:48.899Z,98420.69
2022-12-03T05:50:15.740Z,98412.84
2022-12-03T05:52:42.335Z,98416.31
2022-12-03T05:55:09.953Z,98419.69
2022-12-03T05:57:36.718Z,98423.19
2022-12-03T06:00:05.904Z,98428.47
2022-12-03T06:02:32.622Z,98426.75
2022-12-03T06:04:59.465Z,98426.69
2022-12-03T06:07:26.578Z,98431.94
2022-12-03T06:09:53.262Z,98429.34
2022-12-03T06:12:19.956Z,98432.06
2022-12-03T06:14:46.634Z,98430.34
2022-12-03T06:17:13.367Z,98429.53
2022-12-03T06:19:40.006Z,98429.47
2022-12-03T06:22:06.681Z,98434.69
2022-12-03T06:24:33.405Z,98442.53
2022-12-03T06:27:00.470Z,98439.91
2022-12-03T06:29:27.208Z,98443.41
2022-12-03T06:31:53.822Z,98438.28
2022-12-03T06:34:20.435Z,98444.41
2022-12-03T06:36:47.141Z,98442.66
2022-12-03T06:39:13.750Z,98441.84
2022-12-03T06:41:40.362Z,98444.41
2022-12-03T06:44:07.002Z,98447.88
2022-12-03T06:46:33.701Z,98442.69
2022-12-03T06:49:00.765Z,98442.69
2022-12-03T06:51:27.459Z,98442.69
2022-12-03T06:53:54.074Z,98452.25
2022-12-03T06:56:22.527Z,98443.63
2022-12-03T06:58:49.331Z,98439.25
2022-12-03T07:01:16.003Z,98439.31
2022-12-03T07:03:42.591Z,98448.03
2022-12-03T07:06:09.227Z,98448.03
2022-12-03T07:08:35.834Z,98452.41
2022-12-03T07:11:02.480Z,98444.56
2022-12-03T07:13:29.168Z,98443.72
2022-12-03T07:15:56.009Z,98442.88
2022-12-03T07:18:22.643Z,98444.59
2022-12-03T07:20:49.238Z,98448.13
2022-12-03T07:23:15.785Z,98449.88
2022-12-03T07:25:42.468Z,98448.13
2022-12-03T07:28:09.062Z,98445.56
2022-12-03T07:30:35.671Z,98441.25
2022-12-03T07:33:02.348Z,98452.59
2022-12-03T07:35:28.953Z,98450.88
2022-12-03T07:37:55.524Z,98450.00
2022-12-03T07:40:22.197Z,98449.09
2022-12-03T07:42:48.764Z,98453.44
2022-12-03T07:45:15.571Z,98446.50
2022-12-03T07:47:42.165Z,98445.66
2022-12-03T07:50:09.394Z,98452.63
2022-12-03T07:52:36.060Z,98441.31
2022-12-03T07:55:02.819Z,98444.81
2022-12-03T07:57:29.537Z,98440.47
2022-12-03T07:59:56.182Z,98444.81
2022-12-03T08:02:22.914Z,98445.69
2022-12-03T08:04:49.657Z,98442.19
2022-12-03T08:07:16.268Z,98437.84
2022-12-03T08:09:43.247Z,98437.84
2022-12-03T08:12:22.265Z,98439.56
2022-12-03T08:14:49.264Z,98436.97
2022-12-03T08:17:17.944Z,98437.81
2022-12-03T08:19:47.087Z,98443.03
2022-12-03T08:22:15.931Z,98442.13
2022-12-03T08:24:43.752Z,98446.53
2022-12-03T08:27:19.854Z,98442.16
2022-12-03T08:29:46.702Z,98437.81
2022-12-03T08:32:13.825Z,98443.06
2022-12-03T08:34:43.014Z,98443.03
2022-12-03T08:37:16.434Z,98436.91
2022-12-03T08:39:48.526Z,98437.78
2022-12-03T08:42:42.489Z,98436.88
2022-12-03T08:45:35.320Z,98440.38
2022-12-03T08:48:34.293Z,98431.69
2022-12-03T08:51:20.231Z,98424.72
2022-12-03T08:53:55.433Z,98427.28
2022-12-03T08:56:28.972Z,98428.16
2022-12-03T08:59:16.178Z,98429.00
2022-12-03T09:01:45.633Z,98428.13
2022-12-03T09:04:18.603Z,98432.44
2022-12-03T09:06:45.439Z,98428.94
2022-12-03T09:09:12.004Z,98434.16
2022-12-03T09:11:38.852Z,98420.13
2022-12-03T09:14:06.341Z,98420.06
2022-12-03T09:16:32.995Z,98418.34
2022-12-03T09:18:59.860Z,98421.75
2022-12-03T09:21:26.518Z,98420.88
2022-12-03T09:23:53.189Z,98419.13
2022-12-03T09:26:19.969Z,98411.25
2022-12-03T09:28:48.348Z,98410.34
2022-12-03T09:31:16.193Z,98402.47
2022-12-03T09:33:43.121Z,98406.88
2022-12-03T09:36:09.774Z,98398.97
2022-12-03T09:38:36.444Z,98407.66
2022-12-03T09:41:03.178Z,98407.69
2022-12-03T09:44:02.590Z,98405.88
2022-12-03T09:46:22.000Z,98409.28
2022-12-03T09:48:49.219Z,98409.19
2022-12-03T09:51:15.905Z,98404.88
2022-12-03T09:53:42.647Z,98404.03
2022-12-03T09:56:18.429Z,98404.88
2022-12-03T09:58:45.265Z,98399.53
2022-12-03T10:01:14.857Z,98398.56
2022-12-03T10:03:48.000Z,98398.47
2022-12-03T10:06:21.600Z,98401.03
2022-12-03T10:08:50.478Z,98405.28
2022-12-03T10:11:19.263Z,98395.56
2022-12-03T10:13:47.566Z,98405.03
2022-12-03T10:16:19.078Z,98399.00
2022-12-03T10:18:48.908Z,98404.97
2022-12-03T10:21:44.947Z,98398.69
2022-12-03T10:24:23.613Z,98400.34
2022-12-03T10:26:58.621Z,98402.91
2022-12-03T10:29:40.737Z,98398.56
2022-12-03T10:32:10.138Z,98391.56
2022-12-03T10:34:39.046Z,98399.41
2022-12-03T10:37:15.182Z,98401.22
2022-12-03T10:40:01.120Z,98393.34
2022-12-03T10:42:31.798Z,98388.19
2022-12-03T10:45:22.742Z,98381.00
2022-12-03T10:48:14.258Z,98380.22
2022-12-03T10:50:52.836Z,98375.88
2022-12-03T10:53:22.510Z,98374.97
2022-12-03T10:55:51.768Z,98369.78
2022-12-03T10:58:22.723Z,98375.69
2022-12-03T11:00:51.437Z,98374.81
2022-12-03T11:03:24.747Z,98373.91
2022-12-03T11:05:53.999Z,98373.00
2022-12-03T11:09:09.072Z,98374.69
2022-12-03T11:11:48.836Z,98372.84
2022-12-03T11:14:53.625Z,98368.34
2022-12-03T11:17:38.981Z,98361.31
2022-12-03T11:20:18.076Z,98356.84
2022-12-03T11:22:49.355Z,98356.00
2022-12-03T11:25:47.068Z,98348.16
2022-12-03T11:28:14.172Z,98366.59
2022-12-03T11:31:01.480Z,98356.00
2022-12-03T11:33:36.830Z,98355.13
2022-12-03T11:36:03.559Z,98349.00
2022-12-03T11:38:50.687Z,98353.19
2022-12-03T11:41:28.909Z,98353.97
2022-12-03T11:43:56.256Z,98355.63
2022-12-03T11:46:30.625Z,98355.00
2022-12-03T11:48:59.136Z,98352.41
2022-12-03T11:51:28.545Z,98353.31
2022-12-03T11:53:57.933Z,98351.56
2022-12-03T11:56:33.762Z,98357.66
2022-12-03T11:59:03.513Z,98355.13
2022-12-03T12:01:38.509Z,98360.59
2022-12-03T12:04:06.720Z,98354.53
2022-12-03T12:06:42.577Z,98354.53
2022-12-03T12:09:09.649Z,98350.97
2022-12-03T12:11:41.386Z,98352.66
2022-12-03T12:14:09.048Z,98355.25
2022-12-03T12:16:40.982Z,98349.22
2022-12-03T12:19:31.157Z,98349.13
2022-12-03T12:22:14.590Z,98355.41
2022-12-03T12:24:43.184Z,98358.03
2022-12-03T12:27:15.732Z,98343.06
2022-12-03T12:29:44.011Z,98346.56
2022-12-03T12:32:10.790Z,98355.28
2022-12-03T12:34:45.642Z,98354.47
2022-12-03T12:37:33.709Z,98353.00
2022-12-03T12:40:05.709Z,98354.88
2022-12-03T12:42:38.271Z,98360.94
2022-12-03T12:45:08.026Z,98356.66
2022-12-03T12:47:37.720Z,98359.41
2022-12-03T12:50:11.446Z,98361.16
2022-12-03T12:52:52.767Z,98359.16
2022-12-03T12:55:20.509Z,98355.50
2022-12-03T12:57:47.286Z,98355.59
2022-12-03T13:00:16.554Z,98360.28
2022-12-03T13:02:44.691Z,98349.81
2022-12-03T13:05:13.201Z,98355.94
2022-12-03T13:07:41.501Z,98348.13
2022-12-03T13:10:36.856Z,98348.09
2022-12-03T13:13:20.374Z,98354.13
2022-12-03T13:15:57.501Z,98351.56
2022-12-03T13:18:33.448Z,98355.91
2022-12-03T13:21:06.419Z,98356.88
2022-12-03T13:23:35.310Z,98361.28
2022-12-03T13:26:28.494Z,98356.19
2022-12-03T13:29:06.354Z,98365.81
2022-12-03T13:31:41.860Z,98369.25
2022-12-03T13:34:33.199Z,98374.53
2022-12-03T13:37:01.627Z,98371.06
2022-12-03T13:39:39.310Z,98370.22
2022-12-03T13:42:39.703Z,98371.13
2022-12-03T13:45:15.292Z,98369.44
2022-12-03T13:47:49.228Z,98373.03
2022-12-03T13:50:40.273Z,98372.25
2022-12-03T13:53:32.722Z,98370.53
2022-12-03T13:56:20.555Z,98370.44
2022-12-03T13:58:47.159Z,98376.63
2022-12-03T14:01:13.820Z,98371.41
2022-12-03T14:03:40.487Z,98376.59
2022-12-03T14:06:07.382Z,98380.13
2022-12-03T14:08:34.011Z,98388.81
2022-12-03T14:11:01.081Z,98389.81
2022-12-03T14:13:27.911Z,98386.41
2022-12-03T14:15:54.517Z,98393.38
2022-12-03T14:18:21.265Z,98392.50
2022-12-03T14:20:48.396Z,98388.19
2022-12-03T14:23:15.349Z,98392.56
2022-12-03T14:25:44.028Z,98389.09
2022-12-03T14:28:10.906Z,98391.78
2022-12-03T14:30:37.544Z,98388.34
2022-12-03T14:33:04.172Z,98401.47
2022-12-03T14:35:30.895Z,98397.97
2022-12-03T14:37:57.486Z,98397.97
2022-12-03T14:40:24.417Z,98391.88
2022-12-03T14:42:51.143Z,98396.22
2022-12-03T14:45:17.783Z,98395.44
2022-12-03T14:47:59.208Z,98396.28
2022-12-03T14:50:25.860Z,98398.06
2022-12-03T14:52:52.603Z,98403.28
2022-12-03T14:55:19.260Z,98397.22
2022-12-03T14:57:45.828Z,98398.06
2022-12-03T15:00:16.742Z,98399.84
2022-12-03T15:02:43.349Z,98403.28
2022-12-03T15:05:13.326Z,98400.69
2022-12-03T15:07:40.129Z,98397.22
2022-12-03T15:10:08.169Z,98411.19
2022-12-03T15:12:34.838Z,98400.75
2022-12-03T15:15:01.499Z,98404.25
2022-12-03T15:17:32.039Z,98405.09
2022-12-03T15:19:59.001Z,98406.91
2022-12-03T15:22:25.721Z,98408.63
2022-12-03T15:24:52.322Z,98413.00
2022-12-03T15:27:18.887Z,98419.09
2022-12-03T15:29:45.448Z,98415.66
2022-12-03T15:32:12.207Z,98421.78
2022-12-03T15:34:38.813Z,98414.84
2022-12-03T15:37:05.517Z,98413.97
2022-12-03T15:39:36.395Z,98421.88
2022-12-03T15:42:03.063Z,98424.47
2022-12-03T15:44:29.692Z,98427.09
2022-12-03T15:46:56.346Z,98430.59
2022-12-03T15:49:22.994Z,98428.84
2022-12-03T15:51:49.544Z,98432.31
2022-12-03T15:54:16.128Z,98434.97
2022-12-03T15:56:42.757Z,98436.72
2022-12-03T15:59:09.323Z,98431.50
2022-12-03T16:01:36.053Z,98430.63
2022-12-03T16:04:02.805Z,98430.66
2022-12-03T16:06:29.472Z,98435.00
2022-12-03T16:08:56.101Z,98437.66
2022-12-03T16:11:22.758Z,98439.38
2022-12-03T16:13:49.368Z,98439.41
2022-12-03T16:16:16.149Z,98435.06
2022-12-03T16:18:42.835Z,98434.19
2022-12-03T16:21:09.481Z,98433.31
2022-12-03T16:23:36.096Z,98435.09
2022-12-03T16:26:05.403Z,98434.22
2022-12-03T16:28:32.010Z,98437.72
2022-12-03T16:30:58.970Z,98442.97
2022-12-03T16:33:27.715Z,98441.25
2022-12-03T16:35:54.870Z,98436.94
2022-12-03T16:38:21.436Z,98440.38
2022-12-03T16:40:48.188Z,98440.41
2022-12-03T16:43:14.865Z,98444.72
2022-12-03T16:46:01.840Z,98449.97
2022-12-03T16:48:29.991Z,98437.78
2022-12-03T16:50:56.653Z,98441.25
2022-12-03T16:53:23.332Z,98443.88
2022-12-03T16:55:49.954Z,98442.16
2022-12-03T16:58:18.824Z,98450.81
2022-12-03T17:00:45.440Z,98449.13
2022-12-03T17:03:12.130Z,98452.59
2022-12-03T17:05:38.729Z,98450.81
2022-12-03T17:08:05.567Z,98462.13
2022-12-03T17:10:32.340Z,98456.91
2022-12-03T17:13:09.221Z,98463.00
2022-12-03T17:15:36.990Z,98451.69
2022-12-03T17:18:03.972Z,98455.16
2022-12-03T17:20:31.658Z,98452.53
2022-12-03T17:22:59.172Z,98455.16
2022-12-03T17:25:26.520Z,98450.78
2022-12-03T17:27:53.161Z,98453.41
2022-12-03T17:30:20.121Z,98456.00
2022-12-03T17:32:46.747Z,98458.63
2022-12-03T17:35:13.811Z,98465.59
2022-12-03T17:37:40.515Z,98460.38
2022-12-03T17:40:10.858Z,98460.38
2022-12-03T17:42:37.439Z,98458.63
2022-12-03T17:45:04.666Z,98467.34
2022-12-03T17:47:31.473Z,98464.75
2022-12-03T17:49:58.108Z,98470.81
2022-12-03T17:52:24.770Z,98462.13
2022-12-03T17:57:38.088Z,98469.09
2022-12-03T18:00:05.521Z,98469.94
2022-12-03T18:02:32.192Z,98464.72
2022-12-03T18:04:58.823Z,98464.75
2022-12-03T18:07:25.519Z,98469.06
2022-12-03T18:09:53.305Z,98469.94
2022-12-03T18:12:22.300Z,98461.28
2022-12-03T18:14:48.979Z,98465.63
2022-12-03T18:17:15.582Z,98459.56
2022-12-03T18:19:42.212Z,98460.41
2022-12-03T18:22:09.262Z,98456.06
2022-12-03T18:24:35.988Z,98463.88
2022-12-03T18:27:02.589Z,98461.25
2022-12-03T18:29:29.214Z,98457.81
2022-12-03T18:31:55.977Z,98461.28
2022-12-03T18:34:22.659Z,98465.63
2022-12-03T18:36:49.497Z,98467.34
2022-12-03T18:39:28.513Z,98465.59
2022-12-03T18:41:55.176Z,98463.88
2022-12-03T18:44:21.857Z,98463.88
2022-12-03T18:46:55.928Z,98464.72
2022-12-03T18:49:22.671Z,98475.16
2022-12-03T18:51:54.325Z,98469.94
2022-12-03T18:54:24.114Z,98466.47
2022-12-03T18:56:50.747Z,98477.81
2022-12-03T18:59:17.300Z,98469.97
2022-12-03T19:01:43.962Z,98471.72
2022-12-03T19:04:11.039Z,98470.84
2022-12-03T19:06:37.689Z,98473.47
2022-12-03T19:09:04.792Z,98474.31
2022-12-03T19:11:34.007Z,98474.31
2022-12-03T19:14:00.708Z,98471.72
2022-12-03T19:16:27.350Z,98470.00
2022-12-03T19:18:55.458Z,98480.41
2022-12-03T19:21:22.369Z,98478.69
2022-12-03T19:24:16.445Z,98473.47
2022-12-03T19:26:35.690Z,98470.88
2022-12-03T19:29:03.041Z,98470.88
2022-12-03T19:31:33.254Z,98475.22
2022-12-03T19:34:00.172Z,98481.28
2022-12-03T19:36:29.767Z,98479.59
2022-12-03T19:38:58.711Z,98478.69
2022-12-03T19:41:27.985Z,98484.81
2022-12-03T19:43:56.457Z,98482.16
2022-12-03T19:46:25.189Z,98489.13
2022-12-03T19:48:53.458Z,98487.41
2022-12-03T19:51:34.003Z,98480.41
2022-12-03T19:54:03.167Z,98481.28
2022-12-03T19:56:30.509Z,98479.56
2022-12-03T19:58:58.109Z,98483.06
2022-12-03T20:01:28.273Z,98472.59
2022-12-03T20:03:57.185Z,98486.53
2022-12-03T20:06:27.178Z,98476.97
2022-12-03T20:08:58.961Z,98476.97
2022-12-03T20:11:28.643Z,98475.25
2022-12-03T20:13:57.534Z,98476.09
2022-12-03T20:16:25.751Z,98475.22
2022-12-03T20:18:56.800Z,98474.38
2022-12-03T20:21:23.513Z,98471.75
2022-12-03T20:23:50.230Z,98484.78
2022-12-03T20:26:19.730Z,98476.94
2022-12-03T20:28:50.314Z,98474.38
2022-12-03T20:31:19.782Z,98484.78
2022-12-03T20:33:48.524Z,98482.19
2022-12-03T20:36:16.886Z,98486.50
2022-12-03T20:38:43.724Z,98493.47
2022-12-03T20:41:12.578Z,98501.31
2022-12-03T20:43:39.588Z,98503.91
2022-12-03T20:46:15.654Z,98506.53
2022-12-03T20:48:43.402Z,98505.66
2022-12-03T20:51:12.199Z,98508.28
2022-12-03T20:53:39.388Z,98499.59
2022-12-03T20:56:06.824Z,98506.53
2022-12-03T20:58:34.596Z,98502.19
2022-12-03T21:01:18.991Z,98512.63
2022-12-03T21:03:46.699Z,98504.78
2022-12-03T21:06:14.906Z,98502.16
2022-12-03T21:08:42.913Z,98503.06
2022-12-03T21:11:11.978Z,98505.66
2022-12-03T21:13:41.670Z,98502.19
2022-12-03T21:16:11.366Z,98496.97
2022-12-03T21:18:38.377Z,98505.66
2022-12-03T21:21:06.075Z,98500.44
2022-12-03T21:23:33.842Z,98503.06
2022-12-03T21:26:12.549Z,98507.38
2022-12-03T21:28:41.592Z,98512.63
2022-12-03T21:31:10.557Z,98505.66
2022-12-03T21:33:38.227Z,98514.34
2022-12-03T21:36:05.994Z,98499.56
2022-12-03T21:38:33.902Z,98501.31
2022-12-03T21:41:01.102Z,98501.31
2022-12-03T21:43:28.164Z,98492.59
2022-12-03T21:45:55.247Z,98496.09
2022-12-03T21:48:22.501Z,98503.03
2022-12-03T21:51:03.710Z,98503.03
2022-12-03T21:53:32.230Z,98494.34
2022-12-03T21:55:59.981Z,98491.75
2022-12-03T21:58:26.689Z,98491.72
2022-12-03T22:00:53.408Z,98493.47
2022-12-03T22:03:20.117Z,98490.00
2022-12-03T22:05:46.938Z,98488.28
2022-12-03T22:08:13.916Z,98486.53
2022-12-03T22:10:41.614Z,98490.00
2022-12-03T22:13:08.352Z,98487.41
2022-12-03T22:15:37.809Z,98483.91
2022-12-03T22:18:04.855Z,98490.00
2022-12-03T22:20:31.579Z,98491.72
2022-12-03T22:22:58.217Z,98483.06
2022-12-03T22:25:24.877Z,98483.94
2022-12-03T22:27:51.473Z,98486.53
2022-12-03T22:30:18.194Z,98490.00
2022-12-03T22:32:45.035Z,98483.91
2022-12-03T22:35:11.633Z,98480.44
2022-12-03T22:37:38.857Z,98480.44
2022-12-03T22:40:06.443Z,98478.69
2022-12-03T22:42:33.073Z,98484.78
2022-12-03T22:44:59.657Z,98477.81
2022-12-03T22:47:26.364Z,98485.66
2022-12-03T22:49:53.296Z,98488.28
2022-12-03T22:52:20.075Z,98491.75
2022-12-03T22:54:46.670Z,98490.00
2022-12-03T22:57:13.286Z,98491.72
2022-12-03T22:59:39.888Z,98485.66
2022-12-03T23:02:06.456Z,98490.00
2022-12-03T23:04:33.073Z,98485.66
2022-12-03T23:06:59.688Z,98487.41
2022-12-03T23:09:26.373Z,98484.78
2022-12-03T23:11:52.987Z,98485.66
2022-12-03T23:14:19.608Z,98476.97
2022-12-03T23:16:46.211Z,98476.09
2022-12-03T23:19:12.883Z,98483.94
2022-12-03T23:21:39.529Z,98485.66
2022-12-03T23:24:06.746Z,98476.97
2022-12-03T23:26:35.798Z,98480.44
2022-12-03T23:29:03.139Z,98471.72
2022-12-03T23:31:31.602Z,98481.28
2022-12-03T23:33:59.589Z,98482.16
2022-12-03T23:36:28.827Z,98479.56
2022-12-03T23:38:55.540Z,98490.84
2022-12-03T23:41:23.471Z,98488.25
2022-12-03T23:43:50.171Z,98483.03
2022-12-03T23:46:24.917Z,98476.09
2022-12-03T23:48:52.354Z,98470.88
2022-12-03T23:51:21.766Z,98472.59
2022-12-03T23:53:48.614Z,98465.66
2022-12-03T23:56:21.940Z,98469.13
2022-12-03T23:58:48.854Z,98467.38
